sensor_id;sensor_type;location;lat;lon;timestamp;temperature;humidity
4411;DHT22;2218;51.408;7.208;2022-10-13T00:00:48;19.20;45.20
4411;DHT22;2218;51.408;7.208;2022-10-13T00:03:16;19.20;45.30
4411;DHT22;2218;51.408;7.208;2022-10-13T00:05:45;19.20;45.30
4411;DHT22;2218;51.408;7.208;2022-10-13T00:08:16;19.20;45.30
4411;DHT22;2218;51.408;7.208;2022-10-13T00:10:46;19.20;45.30
4411;DHT22;2218;51.408;7.208;2022-10-13T00:13:18;19.20;45.30
4411;DHT22;2218;51.408;7.208;2022-10-13T00:15:47;19.20;45.30
4411;DHT22;2218;51.408;7.208;2022-10-13T00:18:15;19.20;45.30
4411;DHT22;2218;51.408;7.208;2022-10-13T00:20:44;19.20;45.30
4411;DHT22;2218;51.408;7.208;2022-10-13T00:23:12;19.20;45.30
4411;DHT22;2218;51.408;7.208;2022-10-13T00:25:40;19.20;45.30
4411;DHT22;2218;51.408;7.208;2022-10-13T00:28:08;19.20;45.30
4411;DHT22;2218;51.408;7.208;2022-10-13T00:30:36;19.20;45.30
4411;DHT22;2218;51.408;7.208;2022-10-13T00:33:05;19.10;45.20
4411;DHT22;2218;51.408;7.208;2022-10-13T00:35:33;19.20;45.40
4411;DHT22;2218;51.408;7.208;2022-10-13T00:38:06;19.20;45.40
4411;DHT22;2218;51.408;7.208;2022-10-13T00:40:33;19.20;45.40
4411;DHT22;2218;51.408;7.208;2022-10-13T00:42:59;19.20;45.40
4411;DHT22;2218;51.408;7.208;2022-10-13T00:45:27;19.20;45.40
4411;DHT22;2218;51.408;7.208;2022-10-13T00:47:56;19.20;45.40
4411;DHT22;2218;51.408;7.208;2022-10-13T00:50:32;19.20;45.40
4411;DHT22;2218;51.408;7.208;2022-10-13T00:53:04;19.20;45.40
4411;DHT22;2218;51.408;7.208;2022-10-13T00:55:35;19.20;45.40
4411;DHT22;2218;51.408;7.208;2022-10-13T00:58:05;19.20;45.40
4411;DHT22;2218;51.408;7.208;2022-10-13T01:00:35;19.20;45.40
4411;DHT22;2218;51.408;7.208;2022-10-13T01:03:02;19.20;45.40
4411;DHT22;2218;51.408;7.208;2022-10-13T01:05:31;19.20;45.40
4411;DHT22;2218;51.408;7.208;2022-10-13T01:07:58;19.20;45.40
4411;DHT22;2218;51.408;7.208;2022-10-13T01:10:34;19.20;45.40
4411;DHT22;2218;51.408;7.208;2022-10-13T01:13:15;19.20;45.40
4411;DHT22;2218;51.408;7.208;2022-10-13T01:15:54;19.10;45.30
4411;DHT22;2218;51.408;7.208;2022-10-13T01:18:34;19.20;45.90
4411;DHT22;2218;51.408;7.208;2022-10-13T01:21:18;19.10;45.40
4411;DHT22;2218;51.408;7.208;2022-10-13T01:24:20;19.10;45.40
4411;DHT22;2218;51.408;7.208;2022-10-13T01:27:11;19.10;45.40
4411;DHT22;2218;51.408;7.208;2022-10-13T01:30:04;19.10;45.40
4411;DHT22;2218;51.408;7.208;2022-10-13T01:32:53;19.10;45.40
4411;DHT22;2218;51.408;7.208;2022-10-13T01:35:40;19.10;45.40
4411;DHT22;2218;51.408;7.208;2022-10-13T01:38:23;19.10;45.40
4411;DHT22;2218;51.408;7.208;2022-10-13T01:40:59;19.10;45.40
4411;DHT22;2218;51.408;7.208;2022-10-13T01:43:36;19.10;45.50
4411;DHT22;2218;51.408;7.208;2022-10-13T01:46:11;19.10;45.40
4411;DHT22;2218;51.408;7.208;2022-10-13T01:48:43;19.10;45.40
4411;DHT22;2218;51.408;7.208;2022-10-13T01:51:13;19.10;45.50
4411;DHT22;2218;51.408;7.208;2022-10-13T01:53:45;19.10;45.50
4411;DHT22;2218;51.408;7.208;2022-10-13T01:56:13;19.10;45.50
4411;DHT22;2218;51.408;7.208;2022-10-13T01:58:40;19.10;45.50
4411;DHT22;2218;51.408;7.208;2022-10-13T02:01:18;19.10;45.50
4411;DHT22;2218;51.408;7.208;2022-10-13T02:04:05;19.10;45.50
4411;DHT22;2218;51.408;7.208;2022-10-13T02:06:44;19.10;45.50
4411;DHT22;2218;51.408;7.208;2022-10-13T02:09:21;19.10;45.50
4411;DHT22;2218;51.408;7.208;2022-10-13T02:11:57;19.10;45.50
4411;DHT22;2218;51.408;7.208;2022-10-13T02:14:33;19.10;45.50
4411;DHT22;2218;51.408;7.208;2022-10-13T02:17:08;19.10;45.50
4411;DHT22;2218;51.408;7.208;2022-10-13T02:19:38;19.10;45.50
4411;DHT22;2218;51.408;7.208;2022-10-13T02:22:06;19.10;45.50
4411;DHT22;2218;51.408;7.208;2022-10-13T02:24:36;19.10;45.50
4411;DHT22;2218;51.408;7.208;2022-10-13T02:27:04;19.10;45.50
4411;DHT22;2218;51.408;7.208;2022-10-13T02:29:32;19.10;45.60
4411;DHT22;2218;51.408;7.208;2022-10-13T02:32:00;19.10;45.60
4411;DHT22;2218;51.408;7.208;2022-10-13T02:34:28;19.10;45.60
4411;DHT22;2218;51.408;7.208;2022-10-13T02:36:55;19.10;45.60
4411;DHT22;2218;51.408;7.208;2022-10-13T02:39:22;19.10;45.60
4411;DHT22;2218;51.408;7.208;2022-10-13T02:41:49;19.10;45.60
4411;DHT22;2218;51.408;7.208;2022-10-13T02:44:16;19.10;45.60
4411;DHT22;2218;51.408;7.208;2022-10-13T02:46:43;19.10;45.60
4411;DHT22;2218;51.408;7.208;2022-10-13T02:49:10;19.10;45.60
4411;DHT22;2218;51.408;7.208;2022-10-13T02:51:38;19.10;45.60
4411;DHT22;2218;51.408;7.208;2022-10-13T02:54:05;19.10;45.60
4411;DHT22;2218;51.408;7.208;2022-10-13T02:56:32;19.10;45.60
4411;DHT22;2218;51.408;7.208;2022-10-13T02:58:59;19.10;45.60
4411;DHT22;2218;51.408;7.208;2022-10-13T03:01:26;19.10;45.60
4411;DHT22;2218;51.408;7.208;2022-10-13T03:03:53;19.10;45.60
4411;DHT22;2218;51.408;7.208;2022-10-13T03:06:20;19.10;45.60
4411;DHT22;2218;51.408;7.208;2022-10-13T03:08:48;19.10;45.70
4411;DHT22;2218;51.408;7.208;2022-10-13T03:11:15;19.10;45.70
4411;DHT22;2218;51.408;7.208;2022-10-13T03:13:42;19.10;45.70
4411;DHT22;2218;51.408;7.208;2022-10-13T03:16:09;19.10;45.70
4411;DHT22;2218;51.408;7.208;2022-10-13T03:18:36;19.10;45.70
4411;DHT22;2218;51.408;7.208;2022-10-13T03:21:05;19.10;45.70
4411;DHT22;2218;51.408;7.208;2022-10-13T03:23:35;19.10;45.70
4411;DHT22;2218;51.408;7.208;2022-10-13T03:26:04;19.10;45.70
4411;DHT22;2218;51.408;7.208;2022-10-13T03:28:31;19.10;45.70
4411;DHT22;2218;51.408;7.208;2022-10-13T03:31:00;19.10;45.70
4411;DHT22;2218;51.408;7.208;2022-10-13T03:33:27;19.10;45.70
4411;DHT22;2218;51.408;7.208;2022-10-13T03:35:58;19.10;45.80
4411;DHT22;2218;51.408;7.208;2022-10-13T03:38:26;19.10;45.70
4411;DHT22;2218;51.408;7.208;2022-10-13T03:40:53;19.10;45.80
4411;DHT22;2218;51.408;7.208;2022-10-13T03:43:22;19.10;45.80
4411;DHT22;2218;51.408;7.208;2022-10-13T03:45:56;19.10;45.80
4411;DHT22;2218;51.408;7.208;2022-10-13T03:48:24;19.10;45.80
4411;DHT22;2218;51.408;7.208;2022-10-13T03:50:51;19.10;45.80
4411;DHT22;2218;51.408;7.208;2022-10-13T03:53:19;19.10;45.80
4411;DHT22;2218;51.408;7.208;2022-10-13T03:55:50;19.10;45.80
4411;DHT22;2218;51.408;7.208;2022-10-13T03:58:18;19.10;45.80
4411;DHT22;2218;51.408;7.208;2022-10-13T04:00:49;19.10;45.90
4411;DHT22;2218;51.408;7.208;2022-10-13T04:03:17;19.10;45.80
4411;DHT22;2218;51.408;7.208;2022-10-13T04:05:44;19.10;45.90
4411;DHT22;2218;51.408;7.208;2022-10-13T04:08:11;19.10;45.90
4411;DHT22;2218;51.408;7.208;2022-10-13T04:10:38;19.10;45.80
4411;DHT22;2218;51.408;7.208;2022-10-13T04:13:06;19.10;45.90
4411;DHT22;2218;51.408;7.208;2022-10-13T04:15:36;19.10;45.90
4411;DHT22;2218;51.408;7.208;2022-10-13T04:18:06;19.10;45.90
4411;DHT22;2218;51.408;7.208;2022-10-13T04:20:36;19.10;45.90
4411;DHT22;2218;51.408;7.208;2022-10-13T04:23:04;19.10;45.90
4411;DHT22;2218;51.408;7.208;2022-10-13T04:25:35;19.10;45.90
4411;DHT22;2218;51.408;7.208;2022-10-13T04:28:03;19.10;46.40
4411;DHT22;2218;51.408;7.208;2022-10-13T04:30:31;19.10;45.90
4411;DHT22;2218;51.408;7.208;2022-10-13T04:32:59;19.10;45.90
4411;DHT22;2218;51.408;7.208;2022-10-13T04:35:27;19.10;45.90
4411;DHT22;2218;51.408;7.208;2022-10-13T04:37:55;19.10;45.90
4411;DHT22;2218;51.408;7.208;2022-10-13T04:40:22;19.10;46.00
4411;DHT22;2218;51.408;7.208;2022-10-13T04:42:49;19.10;46.00
4411;DHT22;2218;51.408;7.208;2022-10-13T04:45:16;19.10;46.00
4411;DHT22;2218;51.408;7.208;2022-10-13T04:47:48;19.10;46.00
4411;DHT22;2218;51.408;7.208;2022-10-13T04:50:16;19.10;46.00
4411;DHT22;2218;51.408;7.208;2022-10-13T04:52:47;19.10;46.00
4411;DHT22;2218;51.408;7.208;2022-10-13T04:55:14;19.10;46.00
4411;DHT22;2218;51.408;7.208;2022-10-13T04:57:42;19.10;46.00
4411;DHT22;2218;51.408;7.208;2022-10-13T05:00:10;19.10;46.00
4411;DHT22;2218;51.408;7.208;2022-10-13T05:02:37;19.10;46.10
4411;DHT22;2218;51.408;7.208;2022-10-13T05:05:05;19.10;46.00
4411;DHT22;2218;51.408;7.208;2022-10-13T05:07:33;19.10;46.10
4411;DHT22;2218;51.408;7.208;2022-10-13T05:10:01;19.10;46.10
4411;DHT22;2218;51.408;7.208;2022-10-13T05:12:29;19.10;46.10
4411;DHT22;2218;51.408;7.208;2022-10-13T05:14:56;19.10;46.10
4411;DHT22;2218;51.408;7.208;2022-10-13T05:17:23;19.10;46.10
4411;DHT22;2218;51.408;7.208;2022-10-13T05:19:50;19.10;46.10
4411;DHT22;2218;51.408;7.208;2022-10-13T05:22:17;19.10;46.10
4411;DHT22;2218;51.408;7.208;2022-10-13T05:24:46;19.10;46.60
4411;DHT22;2218;51.408;7.208;2022-10-13T05:27:14;19.10;46.10
4411;DHT22;2218;51.408;7.208;2022-10-13T05:29:41;19.10;46.10
4411;DHT22;2218;51.408;7.208;2022-10-13T05:32:08;19.10;46.10
4411;DHT22;2218;51.408;7.208;2022-10-13T05:34:35;19.10;46.10
4411;DHT22;2218;51.408;7.208;2022-10-13T05:37:01;19.10;46.10
4411;DHT22;2218;51.408;7.208;2022-10-13T05:39:32;19.10;46.10
4411;DHT22;2218;51.408;7.208;2022-10-13T05:41:58;19.10;46.10
4411;DHT22;2218;51.408;7.208;2022-10-13T05:44:27;19.10;46.20
4411;DHT22;2218;51.408;7.208;2022-10-13T05:46:54;19.10;46.20
4411;DHT22;2218;51.408;7.208;2022-10-13T05:49:21;19.10;46.20
4411;DHT22;2218;51.408;7.208;2022-10-13T05:51:51;19.10;46.20
4411;DHT22;2218;51.408;7.208;2022-10-13T05:54:26;19.10;46.20
4411;DHT22;2218;51.408;7.208;2022-10-13T05:57:00;19.10;46.20
4411;DHT22;2218;51.408;7.208;2022-10-13T05:59:33;19.10;46.20
4411;DHT22;2218;51.408;7.208;2022-10-13T06:02:10;19.10;46.20
4411;DHT22;2218;51.408;7.208;2022-10-13T06:04:43;19.10;46.80
4411;DHT22;2218;51.408;7.208;2022-10-13T06:07:13;19.10;46.20
4411;DHT22;2218;51.408;7.208;2022-10-13T06:09:40;19.00;46.10
4411;DHT22;2218;51.408;7.208;2022-10-13T06:12:08;19.00;46.10
4411;DHT22;2218;51.408;7.208;2022-10-13T06:14:37;19.00;46.10
4411;DHT22;2218;51.408;7.208;2022-10-13T06:17:10;19.00;46.10
4411;DHT22;2218;51.408;7.208;2022-10-13T06:19:41;19.00;46.10
4411;DHT22;2218;51.408;7.208;2022-10-13T06:22:10;19.00;46.10
4411;DHT22;2218;51.408;7.208;2022-10-13T06:24:36;19.00;46.10
4411;DHT22;2218;51.408;7.208;2022-10-13T06:27:07;19.00;46.10
4411;DHT22;2218;51.408;7.208;2022-10-13T06:29:36;19.00;46.10
4411;DHT22;2218;51.408;7.208;2022-10-13T06:32:04;19.00;46.10
4411;DHT22;2218;51.408;7.208;2022-10-13T06:34:31;19.00;46.10
4411;DHT22;2218;51.408;7.208;2022-10-13T06:36:58;19.00;46.10
4411;DHT22;2218;51.408;7.208;2022-10-13T06:39:25;19.00;46.10
4411;DHT22;2218;51.408;7.208;2022-10-13T06:41:52;19.00;46.10
4411;DHT22;2218;51.408;7.208;2022-10-13T06:44:29;19.00;46.10
4411;DHT22;2218;51.408;7.208;2022-10-13T06:47:01;19.00;46.10
4411;DHT22;2218;51.408;7.208;2022-10-13T06:49:28;19.00;46.10
4411;DHT22;2218;51.408;7.208;2022-10-13T06:51:55;19.00;46.10
4411;DHT22;2218;51.408;7.208;2022-10-13T06:54:23;19.00;46.10
4411;DHT22;2218;51.408;7.208;2022-10-13T06:56:50;19.00;46.10
4411;DHT22;2218;51.408;7.208;2022-10-13T06:59:17;19.00;46.10
4411;DHT22;2218;51.408;7.208;2022-10-13T07:01:44;19.00;46.10
4411;DHT22;2218;51.408;7.208;2022-10-13T07:04:15;19.00;46.10
4411;DHT22;2218;51.408;7.208;2022-10-13T07:06:42;19.00;46.10
4411;DHT22;2218;51.408;7.208;2022-10-13T07:09:09;19.00;46.10
4411;DHT22;2218;51.408;7.208;2022-10-13T07:11:36;19.00;46.10
4411;DHT22;2218;51.408;7.208;2022-10-13T07:14:03;19.00;46.10
4411;DHT22;2218;51.408;7.208;2022-10-13T07:16:30;19.00;46.20
4411;DHT22;2218;51.408;7.208;2022-10-13T07:18:57;19.00;46.20
4411;DHT22;2218;51.408;7.208;2022-10-13T07:21:25;19.00;46.10
4411;DHT22;2218;51.408;7.208;2022-10-13T07:23:52;19.00;46.20
4411;DHT22;2218;51.408;7.208;2022-10-13T07:26:19;19.00;46.10
4411;DHT22;2218;51.408;7.208;2022-10-13T07:28:47;19.00;46.10
4411;DHT22;2218;51.408;7.208;2022-10-13T07:31:16;19.00;46.10
4411;DHT22;2218;51.408;7.208;2022-10-13T07:33:47;19.10;46.20
4411;DHT22;2218;51.408;7.208;2022-10-13T07:36:16;19.10;46.20
4411;DHT22;2218;51.408;7.208;2022-10-13T07:38:45;19.10;46.20
4411;DHT22;2218;51.408;7.208;2022-10-13T07:41:13;19.10;46.20
4411;DHT22;2218;51.408;7.208;2022-10-13T07:43:40;19.10;46.20
4411;DHT22;2218;51.408;7.208;2022-10-13T07:46:08;19.10;46.10
4411;DHT22;2218;51.408;7.208;2022-10-13T07:48:37;19.10;46.10
4411;DHT22;2218;51.408;7.208;2022-10-13T07:51:06;19.10;46.10
4411;DHT22;2218;51.408;7.208;2022-10-13T07:53:35;19.20;46.10
4411;DHT22;2218;51.408;7.208;2022-10-13T07:56:06;19.20;46.10
4411;DHT22;2218;51.408;7.208;2022-10-13T07:58:36;19.20;46.10
4411;DHT22;2218;51.408;7.208;2022-10-13T08:01:05;19.20;46.20
4411;DHT22;2218;51.408;7.208;2022-10-13T08:03:37;19.20;46.20
4411;DHT22;2218;51.408;7.208;2022-10-13T08:06:05;19.20;46.20
4411;DHT22;2218;51.408;7.208;2022-10-13T08:08:33;19.20;46.20
4411;DHT22;2218;51.408;7.208;2022-10-13T08:11:01;19.20;46.20
4411;DHT22;2218;51.408;7.208;2022-10-13T08:13:33;19.20;46.20
4411;DHT22;2218;51.408;7.208;2022-10-13T08:16:15;19.20;46.20
4411;DHT22;2218;51.408;7.208;2022-10-13T08:18:42;19.20;46.20
4411;DHT22;2218;51.408;7.208;2022-10-13T08:21:13;19.20;46.30
4411;DHT22;2218;51.408;7.208;2022-10-13T08:23:42;19.20;46.20
4411;DHT22;2218;51.408;7.208;2022-10-13T08:26:15;19.20;46.20
4411;DHT22;2218;51.408;7.208;2022-10-13T08:28:45;19.20;46.20
4411;DHT22;2218;51.408;7.208;2022-10-13T08:31:12;19.20;46.20
4411;DHT22;2218;51.408;7.208;2022-10-13T08:33:39;19.20;46.20
4411;DHT22;2218;51.408;7.208;2022-10-13T08:36:08;19.20;46.20
4411;DHT22;2218;51.408;7.208;2022-10-13T08:38:35;19.20;46.20
4411;DHT22;2218;51.408;7.208;2022-10-13T08:41:13;19.20;46.30
4411;DHT22;2218;51.408;7.208;2022-10-13T08:43:47;19.20;46.30
4411;DHT22;2218;51.408;7.208;2022-10-13T08:46:22;19.20;46.30
4411;DHT22;2218;51.408;7.208;2022-10-13T08:48:52;19.20;46.20
4411;DHT22;2218;51.408;7.208;2022-10-13T08:51:19;19.20;46.20
4411;DHT22;2218;51.408;7.208;2022-10-13T08:53:47;19.20;46.20
4411;DHT22;2218;51.408;7.208;2022-10-13T08:56:17;19.30;46.30
4411;DHT22;2218;51.408;7.208;2022-10-13T08:58:48;19.30;46.30
4411;DHT22;2218;51.408;7.208;2022-10-13T09:01:19;19.20;46.30
4411;DHT22;2218;51.408;7.208;2022-10-13T09:03:51;19.20;46.20
4411;DHT22;2218;51.408;7.208;2022-10-13T09:06:22;19.20;46.20
4411;DHT22;2218;51.408;7.208;2022-10-13T09:08:55;19.20;46.20
4411;DHT22;2218;51.408;7.208;2022-10-13T09:11:28;19.30;46.40
4411;DHT22;2218;51.408;7.208;2022-10-13T09:14:00;19.30;46.40
4411;DHT22;2218;51.408;7.208;2022-10-13T09:16:32;19.30;46.40
4411;DHT22;2218;51.408;7.208;2022-10-13T09:19:13;19.30;46.40
4411;DHT22;2218;51.408;7.208;2022-10-13T09:21:45;19.30;46.40
4411;DHT22;2218;51.408;7.208;2022-10-13T09:24:14;19.30;46.30
4411;DHT22;2218;51.408;7.208;2022-10-13T09:26:46;19.30;46.30
4411;DHT22;2218;51.408;7.208;2022-10-13T09:29:17;19.30;46.30
4411;DHT22;2218;51.408;7.208;2022-10-13T09:31:46;19.30;46.40
4411;DHT22;2218;51.408;7.208;2022-10-13T09:34:21;19.30;46.30
4411;DHT22;2218;51.408;7.208;2022-10-13T09:36:56;19.30;46.50
4411;DHT22;2218;51.408;7.208;2022-10-13T09:39:24;19.30;46.60
4411;DHT22;2218;51.408;7.208;2022-10-13T09:42:16;19.30;46.60
4411;DHT22;2218;51.408;7.208;2022-10-13T09:44:46;19.40;46.70
4411;DHT22;2218;51.408;7.208;2022-10-13T09:47:23;19.40;46.70
4411;DHT22;2218;51.408;7.208;2022-10-13T09:49:59;19.40;46.80
4411;DHT22;2218;51.408;7.208;2022-10-13T09:52:29;19.40;46.60
4411;DHT22;2218;51.408;7.208;2022-10-13T09:54:57;19.40;46.80
4411;DHT22;2218;51.408;7.208;2022-10-13T09:57:33;19.40;46.80
4411;DHT22;2218;51.408;7.208;2022-10-13T10:00:12;19.40;46.80
4411;DHT22;2218;51.408;7.208;2022-10-13T10:02:50;19.40;46.80
4411;DHT22;2218;51.408;7.208;2022-10-13T10:05:24;19.40;46.70
4411;DHT22;2218;51.408;7.208;2022-10-13T10:07:59;19.40;46.70
4411;DHT22;2218;51.408;7.208;2022-10-13T10:10:31;19.40;46.80
4411;DHT22;2218;51.408;7.208;2022-10-13T10:13:10;19.40;46.80
4411;DHT22;2218;51.408;7.208;2022-10-13T10:15:45;19.40;46.80
4411;DHT22;2218;51.408;7.208;2022-10-13T10:18:22;19.40;46.80
4411;DHT22;2218;51.408;7.208;2022-10-13T10:21:05;19.40;46.80
4411;DHT22;2218;51.408;7.208;2022-10-13T10:23:44;19.40;46.80
4411;DHT22;2218;51.408;7.208;2022-10-13T10:26:18;19.50;46.90
4411;DHT22;2218;51.408;7.208;2022-10-13T10:29:10;19.40;46.80
4411;DHT22;2218;51.408;7.208;2022-10-13T10:31:56;19.40;46.80
4411;DHT22;2218;51.408;7.208;2022-10-13T10:34:35;19.50;47.00
4411;DHT22;2218;51.408;7.208;2022-10-13T10:37:22;19.50;46.80
4411;DHT22;2218;51.408;7.208;2022-10-13T10:40:08;19.50;46.80
4411;DHT22;2218;51.408;7.208;2022-10-13T10:42:59;19.50;46.80
4411;DHT22;2218;51.408;7.208;2022-10-13T10:45:40;19.50;46.90
4411;DHT22;2218;51.408;7.208;2022-10-13T10:48:17;19.50;46.90
4411;DHT22;2218;51.408;7.208;2022-10-13T10:50:47;19.50;46.90
4411;DHT22;2218;51.408;7.208;2022-10-13T10:53:25;19.50;46.90
4411;DHT22;2218;51.408;7.208;2022-10-13T10:56:04;19.50;46.90
4411;DHT22;2218;51.408;7.208;2022-10-13T10:58:43;19.50;46.90
4411;DHT22;2218;51.408;7.208;2022-10-13T11:01:32;19.50;46.90
4411;DHT22;2218;51.408;7.208;2022-10-13T11:04:33;19.50;46.90
4411;DHT22;2218;51.408;7.208;2022-10-13T11:07:10;19.50;46.90
4411;DHT22;2218;51.408;7.208;2022-10-13T11:10:01;19.50;46.90
4411;DHT22;2218;51.408;7.208;2022-10-13T11:15:47;19.50;46.90
4411;DHT22;2218;51.408;7.208;2022-10-13T11:18:55;19.50;46.90
4411;DHT22;2218;51.408;7.208;2022-10-13T11:24:59;19.50;46.90
4411;DHT22;2218;51.408;7.208;2022-10-13T11:27:58;19.50;46.90
4411;DHT22;2218;51.408;7.208;2022-10-13T11:30:56;19.50;46.90
4411;DHT22;2218;51.408;7.208;2022-10-13T11:33:54;19.60;47.00
4411;DHT22;2218;51.408;7.208;2022-10-13T11:36:45;19.50;47.00
4411;DHT22;2218;51.408;7.208;2022-10-13T11:39:56;19.50;47.00
4411;DHT22;2218;51.408;7.208;2022-10-13T11:43:00;19.50;47.00
4411;DHT22;2218;51.408;7.208;2022-10-13T11:45:54;19.60;47.10
4411;DHT22;2218;51.408;7.208;2022-10-13T11:49:13;19.60;47.60
4411;DHT22;2218;51.408;7.208;2022-10-13T11:52:10;19.60;47.00
4411;DHT22;2218;51.408;7.208;2022-10-13T11:54:50;19.50;47.00
4411;DHT22;2218;51.408;7.208;2022-10-13T11:57:22;19.60;47.10
4411;DHT22;2218;51.408;7.208;2022-10-13T11:59:54;19.60;47.10
4411;DHT22;2218;51.408;7.208;2022-10-13T12:02:28;19.60;47.10
4411;DHT22;2218;51.408;7.208;2022-10-13T12:05:00;19.60;47.10
4411;DHT22;2218;51.408;7.208;2022-10-13T12:07:33;19.60;47.10
4411;DHT22;2218;51.408;7.208;2022-10-13T12:10:05;19.60;47.10
4411;DHT22;2218;51.408;7.208;2022-10-13T12:12:34;19.50;47.10
4411;DHT22;2218;51.408;7.208;2022-10-13T12:18:21;19.60;47.10
4411;DHT22;2218;51.408;7.208;2022-10-13T12:20:54;19.60;47.20
4411;DHT22;2218;51.408;7.208;2022-10-13T12:23:24;19.60;47.30
4411;DHT22;2218;51.408;7.208;2022-10-13T12:25:52;19.60;47.30
4411;DHT22;2218;51.408;7.208;2022-10-13T12:28:24;19.60;47.30
4411;DHT22;2218;51.408;7.208;2022-10-13T12:30:56;19.60;47.30
4411;DHT22;2218;51.408;7.208;2022-10-13T12:33:29;19.60;47.30
4411;DHT22;2218;51.408;7.208;2022-10-13T12:36:13;19.60;47.30
4411;DHT22;2218;51.408;7.208;2022-10-13T12:38:47;19.60;47.40
4411;DHT22;2218;51.408;7.208;2022-10-13T12:41:23;19.60;47.40
4411;DHT22;2218;51.408;7.208;2022-10-13T12:43:52;19.60;47.40
4411;DHT22;2218;51.408;7.208;2022-10-13T12:46:38;19.60;47.50
4411;DHT22;2218;51.408;7.208;2022-10-13T12:49:13;19.60;47.50
4411;DHT22;2218;51.408;7.208;2022-10-13T12:51:42;19.60;47.40
4411;DHT22;2218;51.408;7.208;2022-10-13T12:54:18;19.60;47.40
4411;DHT22;2218;51.408;7.208;2022-10-13T12:56:51;19.60;47.50
4411;DHT22;2218;51.408;7.208;2022-10-13T12:59:23;19.60;47.50
4411;DHT22;2218;51.408;7.208;2022-10-13T13:01:55;19.60;47.50
4411;DHT22;2218;51.408;7.208;2022-10-13T13:04:31;19.60;47.50
4411;DHT22;2218;51.408;7.208;2022-10-13T13:07:24;19.60;47.50
4411;DHT22;2218;51.408;7.208;2022-10-13T13:10:02;19.60;47.50
4411;DHT22;2218;51.408;7.208;2022-10-13T13:12:40;19.60;47.50
4411;DHT22;2218;51.408;7.208;2022-10-13T13:15:31;19.60;47.50
4411;DHT22;2218;51.408;7.208;2022-10-13T13:18:30;19.60;47.60
4411;DHT22;2218;51.408;7.208;2022-10-13T13:21:03;19.60;47.60
4411;DHT22;2218;51.408;7.208;2022-10-13T13:23:31;19.60;47.60
4411;DHT22;2218;51.408;7.208;2022-10-13T13:26:05;19.60;47.60
4411;DHT22;2218;51.408;7.208;2022-10-13T13:28:39;19.60;47.60
4411;DHT22;2218;51.408;7.208;2022-10-13T13:31:11;19.60;47.60
4411;DHT22;2218;51.408;7.208;2022-10-13T13:33:39;19.60;47.60
4411;DHT22;2218;51.408;7.208;2022-10-13T13:36:13;19.60;47.60
4411;DHT22;2218;51.408;7.208;2022-10-13T13:38:45;19.60;47.60
4411;DHT22;2218;51.408;7.208;2022-10-13T13:41:13;19.60;47.70
4411;DHT22;2218;51.408;7.208;2022-10-13T13:43:40;19.60;47.60
4411;DHT22;2218;51.408;7.208;2022-10-13T13:46:13;19.60;47.70
4411;DHT22;2218;51.408;7.208;2022-10-13T13:48:43;19.60;47.70
4411;DHT22;2218;51.408;7.208;2022-10-13T13:51:10;19.60;47.70
4411;DHT22;2218;51.408;7.208;2022-10-13T13:53:37;19.60;47.70
4411;DHT22;2218;51.408;7.208;2022-10-13T13:56:05;19.60;47.70
4411;DHT22;2218;51.408;7.208;2022-10-13T13:58:35;19.60;47.70
4411;DHT22;2218;51.408;7.208;2022-10-13T14:01:02;19.60;47.70
4411;DHT22;2218;51.408;7.208;2022-10-13T14:03:29;19.60;47.80
4411;DHT22;2218;51.408;7.208;2022-10-13T14:05:57;19.60;47.80
4411;DHT22;2218;51.408;7.208;2022-10-13T14:08:24;19.60;47.80
4411;DHT22;2218;51.408;7.208;2022-10-13T14:10:51;19.60;47.80
4411;DHT22;2218;51.408;7.208;2022-10-13T14:13:18;19.60;47.80
4411;DHT22;2218;51.408;7.208;2022-10-13T14:15:45;19.60;47.80
4411;DHT22;2218;51.408;7.208;2022-10-13T14:18:21;19.60;47.90
4411;DHT22;2218;51.408;7.208;2022-10-13T14:20:48;19.60;47.90
4411;DHT22;2218;51.408;7.208;2022-10-13T14:23:16;19.60;47.90
4411;DHT22;2218;51.408;7.208;2022-10-13T14:25:43;19.60;47.90
4411;DHT22;2218;51.408;7.208;2022-10-13T14:28:10;19.60;48.00
4411;DHT22;2218;51.408;7.208;2022-10-13T14:30:38;19.60;48.00
4411;DHT22;2218;51.408;7.208;2022-10-13T14:33:06;19.60;48.00
4411;DHT22;2218;51.408;7.208;2022-10-13T14:35:34;19.60;48.10
4411;DHT22;2218;51.408;7.208;2022-10-13T14:38:03;19.60;48.10
4411;DHT22;2218;51.408;7.208;2022-10-13T14:40:31;19.60;48.10
4411;DHT22;2218;51.408;7.208;2022-10-13T14:42:58;19.60;48.10
4411;DHT22;2218;51.408;7.208;2022-10-13T14:45:25;19.60;48.10
4411;DHT22;2218;51.408;7.208;2022-10-13T14:47:52;19.60;48.10
4411;DHT22;2218;51.408;7.208;2022-10-13T14:50:19;19.60;48.10
4411;DHT22;2218;51.408;7.208;2022-10-13T14:52:50;19.60;48.10
4411;DHT22;2218;51.408;7.208;2022-10-13T14:55:17;19.50;48.10
4411;DHT22;2218;51.408;7.208;2022-10-13T14:57:46;19.60;48.20
4411;DHT22;2218;51.408;7.208;2022-10-13T15:00:15;19.60;48.20
4411;DHT22;2218;51.408;7.208;2022-10-13T15:02:42;19.60;48.20
4411;DHT22;2218;51.408;7.208;2022-10-13T15:05:09;19.60;48.20
4411;DHT22;2218;51.408;7.208;2022-10-13T15:07:36;19.60;48.20
4411;DHT22;2218;51.408;7.208;2022-10-13T15:10:03;19.50;48.20
4411;DHT22;2218;51.408;7.208;2022-10-13T15:12:31;19.60;48.30
4411;DHT22;2218;51.408;7.208;2022-10-13T15:14:59;19.60;48.30
4411;DHT22;2218;51.408;7.208;2022-10-13T15:17:26;19.60;48.20
4411;DHT22;2218;51.408;7.208;2022-10-13T15:19:53;19.50;48.20
4411;DHT22;2218;51.408;7.208;2022-10-13T15:22:20;19.60;48.30
4411;DHT22;2218;51.408;7.208;2022-10-13T15:24:47;19.60;48.30
4411;DHT22;2218;51.408;7.208;2022-10-13T15:27:14;19.60;48.30
4411;DHT22;2218;51.408;7.208;2022-10-13T15:29:41;19.50;48.30
4411;DHT22;2218;51.408;7.208;2022-10-13T15:32:12;19.60;48.90
4411;DHT22;2218;51.408;7.208;2022-10-13T15:34:43;19.60;48.40
4411;DHT22;2218;51.408;7.208;2022-10-13T15:37:10;19.60;48.50
4411;DHT22;2218;51.408;7.208;2022-10-13T15:39:37;19.60;48.40
4411;DHT22;2218;51.408;7.208;2022-10-13T15:42:04;19.60;48.50
4411;DHT22;2218;51.408;7.208;2022-10-13T15:44:31;19.60;48.50
4411;DHT22;2218;51.408;7.208;2022-10-13T15:46:58;19.60;49.10
4411;DHT22;2218;51.408;7.208;2022-10-13T15:49:27;19.60;48.50
4411;DHT22;2218;51.408;7.208;2022-10-13T15:51:53;19.60;48.60
4411;DHT22;2218;51.408;7.208;2022-10-13T15:54:21;19.60;48.60
4411;DHT22;2218;51.408;7.208;2022-10-13T15:56:48;19.60;48.60
4411;DHT22;2218;51.408;7.208;2022-10-13T15:59:15;19.60;48.70
4411;DHT22;2218;51.408;7.208;2022-10-13T16:01:42;19.60;48.60
4411;DHT22;2218;51.408;7.208;2022-10-13T16:04:09;19.60;48.60
4411;DHT22;2218;51.408;7.208;2022-10-13T16:06:37;19.60;48.80
4411;DHT22;2218;51.408;7.208;2022-10-13T16:09:04;19.60;48.70
4411;DHT22;2218;51.408;7.208;2022-10-13T16:11:31;19.60;48.80
4411;DHT22;2218;51.408;7.208;2022-10-13T16:13:58;19.60;48.90
4411;DHT22;2218;51.408;7.208;2022-10-13T16:16:25;19.60;48.90
4411;DHT22;2218;51.408;7.208;2022-10-13T16:18:52;19.60;49.00
4411;DHT22;2218;51.408;7.208;2022-10-13T16:21:21;19.60;49.10
4411;DHT22;2218;51.408;7.208;2022-10-13T16:23:52;19.60;49.10
4411;DHT22;2218;51.408;7.208;2022-10-13T16:26:19;19.60;49.30
4411;DHT22;2218;51.408;7.208;2022-10-13T16:28:46;19.60;49.40
4411;DHT22;2218;51.408;7.208;2022-10-13T16:31:15;19.60;49.40
4411;DHT22;2218;51.408;7.208;2022-10-13T16:33:43;19.60;49.50
4411;DHT22;2218;51.408;7.208;2022-10-13T16:36:12;19.60;49.50
4411;DHT22;2218;51.408;7.208;2022-10-13T16:38:41;19.60;49.50
4411;DHT22;2218;51.408;7.208;2022-10-13T16:41:12;19.60;49.60